PWSweather.com
Personal Weather Stations
Station Observations
133525
French Quarters West Seneca , West Seneca, NY 14224

French Quarters West Seneca West Seneca, NY 14224

Lat: 42.850058, Lon: -78.799754

Elevation: 603

Station Type: Davis Vantage Vue pro2

http://westsenecaweather.com/

High Low Average
Temperature 85.6°F29.8°C 69.4°F20.8°C 76.4°F24.7°C
Dew Point 71.4°F21.9°C 66.9°F19.4°C 69.0°F20.6°C
Winds 8.1 mph 13.0 kmh Calm Calm 4.0 mph S6.4 kmh S
Wind Gusts 15.0 mph24.1 kmh -- 7.0 mph11.3 kmh
Humidity 95% 58% 79%
Pressure 29.67 in1004.7 mb 29.56 in1001.0 mb -
Precipitation 0.75 in19.1 mm - -
Hour Temp Dew Point Humidity Winds Wind Gusts Pressure Precip Precip Rate Daily Precip Total
12:00 AM 79.7°F26.5°C 66.9°F19.4°C 65% 4.6 mph SSE7.4 kmh SSE 11.5 mph18.5 kmh 29.68 in1005.1 mb - 0.00 in0.0 mm 0.00 in0.0 mm
12:10 AM 79.7°F26.5°C 67.3°F19.6°C 66% 2.3 mph SSE3.7 kmh SSE 3.5 mph5.6 kmh 29.68 in1005.1 mb - 0.00 in0.0 mm 0.00 in0.0 mm
12:20 AM 79.7°F26.5°C 67.8°F19.9°C 67% 4.6 mph S7.4 kmh S 4.6 mph7.4 kmh 29.68 in1005.1 mb - 0.00 in0.0 mm 0.00 in0.0 mm
12:30 AM 79.8°F26.6°C 67.9°F19.9°C 67% 4.6 mph SSE7.4 kmh SSE 5.8 mph9.3 kmh 29.68 in1005.1 mb - 0.00 in0.0 mm 0.00 in0.0 mm
12:40 AM 79.9°F26.6°C 68.0°F20.0°C 67% 2.3 mph SSE3.7 kmh SSE 4.6 mph7.4 kmh 29.67 in1004.7 mb - 0.00 in0.0 mm 0.00 in0.0 mm
12:50 AM 79.8°F26.6°C 68.3°F20.2°C 68% 3.5 mph S5.6 kmh S 9.2 mph14.8 kmh 29.67 in1004.7 mb - 0.00 in0.0 mm 0.00 in0.0 mm
01:00 AM 79.7°F26.5°C 68.2°F20.1°C 68% 4.6 mph SSE7.4 kmh SSE 10.4 mph16.7 kmh 29.67 in1004.7 mb - 0.00 in0.0 mm 0.00 in0.0 mm
01:10 AM 79.6°F26.4°C 68.5°F20.3°C 69% 5.8 mph S9.3 kmh S 8.1 mph13.0 kmh 29.66 in1004.4 mb - 0.00 in0.0 mm 0.00 in0.0 mm
01:20 AM 79.4°F26.3°C 68.3°F20.2°C 69% 3.5 mph SSE5.6 kmh SSE 5.8 mph9.3 kmh 29.66 in1004.4 mb - 0.00 in0.0 mm 0.00 in0.0 mm
01:30 AM 79.3°F26.3°C 68.2°F20.1°C 69% 6.9 mph SSE11.1 kmh SSE 9.2 mph14.8 kmh 29.66 in1004.4 mb - 0.00 in0.0 mm 0.00 in0.0 mm
01:40 AM 79.1°F26.2°C 68.5°F20.3°C 70% 4.6 mph S7.4 kmh S 8.1 mph13.0 kmh 29.65 in1004.1 mb - 0.00 in0.0 mm 0.00 in0.0 mm
01:50 AM 78.9°F26.1°C 68.3°F20.2°C 70% 4.6 mph SSE7.4 kmh SSE 9.2 mph14.8 kmh 29.65 in1004.1 mb - 0.00 in0.0 mm 0.00 in0.0 mm
02:00 AM 78.7°F25.9°C 68.5°F20.3°C 71% 4.6 mph S7.4 kmh S 6.9 mph11.1 kmh 29.65 in1004.1 mb - 0.00 in0.0 mm 0.00 in0.0 mm
02:10 AM 78.5°F25.8°C 68.3°F20.2°C 71% 2.3 mph SSE3.7 kmh SSE 3.5 mph5.6 kmh 29.64 in1003.7 mb - 0.00 in0.0 mm 0.00 in0.0 mm
02:20 AM 78.2°F25.7°C 68.4°F20.2°C 72% 2.3 mph SSE3.7 kmh SSE 3.5 mph5.6 kmh 29.64 in1003.7 mb - 0.00 in0.0 mm 0.00 in0.0 mm
02:30 AM 78.1°F25.6°C 68.3°F20.2°C 72% 2.3 mph SSE3.7 kmh SSE 3.5 mph5.6 kmh 29.64 in1003.7 mb - 0.00 in0.0 mm 0.00 in0.0 mm
02:40 AM 77.9°F25.5°C 68.1°F20.1°C 72% 5.8 mph S9.3 kmh S 5.8 mph9.3 kmh 29.63 in1003.4 mb - 0.00 in0.0 mm 0.00 in0.0 mm
02:50 AM 77.8°F25.4°C 68.4°F20.2°C 73% 3.5 mph SSE5.6 kmh SSE 5.8 mph9.3 kmh 29.63 in1003.4 mb - 0.00 in0.0 mm 0.00 in0.0 mm
03:00 AM 77.5°F25.3°C 68.6°F20.3°C 74% 3.5 mph S5.6 kmh S 4.6 mph7.4 kmh 29.63 in1003.4 mb - 0.00 in0.0 mm 0.00 in0.0 mm
03:10 AM 77.3°F25.2°C 68.4°F20.2°C 74% 2.3 mph SSE3.7 kmh SSE 4.6 mph7.4 kmh 29.63 in1003.4 mb - 0.00 in0.0 mm 0.00 in0.0 mm
03:20 AM 77.3°F25.2°C 68.3°F20.2°C 74% 2.3 mph S3.7 kmh S 3.5 mph5.6 kmh 29.63 in1003.4 mb - 0.00 in0.0 mm 0.00 in0.0 mm
03:30 AM 77.2°F25.1°C 68.3°F20.2°C 74% 3.5 mph SSE5.6 kmh SSE 4.6 mph7.4 kmh 29.63 in1003.4 mb - 0.00 in0.0 mm 0.00 in0.0 mm
03:50 AM 77.0°F25.0°C 68.5°F20.3°C 75% 2.3 mph S3.7 kmh S 3.5 mph5.6 kmh 29.63 in1003.4 mb - 0.00 in0.0 mm 0.00 in0.0 mm
04:00 AM 76.9°F24.9°C 68.4°F20.2°C 75% 4.6 mph SSE7.4 kmh SSE 6.9 mph11.1 kmh 29.63 in1003.4 mb - 0.00 in0.0 mm 0.00 in0.0 mm
04:10 AM 76.9°F24.9°C 68.4°F20.2°C 75% 3.5 mph SSE5.6 kmh SSE 3.5 mph5.6 kmh 29.63 in1003.4 mb - 0.00 in0.0 mm 0.00 in0.0 mm
04:20 AM 76.8°F24.9°C 68.7°F20.4°C 76% 3.5 mph SSE5.6 kmh SSE 5.8 mph9.3 kmh 29.63 in1003.4 mb - 0.00 in0.0 mm 0.00 in0.0 mm
04:30 AM 76.8°F24.9°C 68.7°F20.4°C 76% 5.8 mph SSE9.3 kmh SSE 11.5 mph18.5 kmh 29.62 in1003.0 mb - 0.00 in0.0 mm 0.00 in0.0 mm
04:40 AM 76.8°F24.9°C 68.7°F20.4°C 76% 3.5 mph SSE5.6 kmh SSE 6.9 mph11.1 kmh 29.62 in1003.0 mb - 0.00 in0.0 mm 0.00 in0.0 mm
04:50 AM 76.7°F24.8°C 68.6°F20.3°C 76% 3.5 mph SSE5.6 kmh SSE 3.5 mph5.6 kmh 29.62 in1003.0 mb - 0.00 in0.0 mm 0.00 in0.0 mm
05:00 AM 76.7°F24.8°C 68.6°F20.3°C 76% 4.6 mph SSE7.4 kmh SSE 5.8 mph9.3 kmh 29.62 in1003.0 mb - 0.00 in0.0 mm 0.00 in0.0 mm
05:10 AM 76.8°F24.9°C 68.3°F20.2°C 75% 5.8 mph SSE9.3 kmh SSE 9.2 mph14.8 kmh 29.62 in1003.0 mb - 0.00 in0.0 mm 0.00 in0.0 mm
05:20 AM 76.9°F24.9°C 68.4°F20.2°C 75% 5.8 mph SSE9.3 kmh SSE 8.1 mph13.0 kmh 29.62 in1003.0 mb - 0.00 in0.0 mm 0.00 in0.0 mm
05:30 AM 76.9°F24.9°C 68.4°F20.2°C 75% 2.3 mph S3.7 kmh S 4.6 mph7.4 kmh 29.62 in1003.0 mb - 0.00 in0.0 mm 0.00 in0.0 mm
05:40 AM 76.8°F24.9°C 68.3°F20.2°C 75% 5.8 mph S9.3 kmh S 8.1 mph13.0 kmh 29.62 in1003.0 mb - 0.00 in0.0 mm 0.00 in0.0 mm
05:50 AM 76.7°F24.8°C 68.6°F20.3°C 76% 4.6 mph S7.4 kmh S 6.9 mph11.1 kmh 29.62 in1003.0 mb - 0.00 in0.0 mm 0.00 in0.0 mm
06:00 AM 76.6°F24.8°C 68.5°F20.3°C 76% 2.3 mph SSE3.7 kmh SSE 4.6 mph7.4 kmh 29.62 in1003.0 mb - 0.00 in0.0 mm 0.00 in0.0 mm
06:10 AM 76.5°F24.7°C 68.4°F20.2°C 76% 3.5 mph S5.6 kmh S 8.1 mph13.0 kmh 29.62 in1003.0 mb - 0.00 in0.0 mm 0.00 in0.0 mm
06:20 AM 76.7°F24.8°C 68.2°F20.1°C 75% 4.6 mph SSE7.4 kmh SSE 8.1 mph13.0 kmh 29.62 in1003.0 mb - 0.00 in0.0 mm 0.00 in0.0 mm
06:30 AM 77.0°F25.0°C 68.5°F20.3°C 75% 3.5 mph SSE5.6 kmh SSE 8.1 mph13.0 kmh 29.62 in1003.0 mb - 0.00 in0.0 mm 0.00 in0.0 mm
06:40 AM 77.3°F25.2°C 68.4°F20.2°C 74% 3.5 mph SSE5.6 kmh SSE 5.8 mph9.3 kmh 29.62 in1003.0 mb - 0.00 in0.0 mm 0.00 in0.0 mm
06:50 AM 77.7°F25.4°C 68.8°F20.4°C 74% 3.5 mph S5.6 kmh S 3.5 mph5.6 kmh 29.62 in1003.0 mb - 0.00 in0.0 mm 0.00 in0.0 mm
07:00 AM 78.0°F25.6°C 68.6°F20.3°C 73% 5.8 mph SSE9.3 kmh SSE 8.1 mph13.0 kmh 29.62 in1003.0 mb - 0.00 in0.0 mm 0.00 in0.0 mm
07:10 AM 78.2°F25.7°C 68.8°F20.4°C 73% 3.5 mph SSE5.6 kmh SSE 4.6 mph7.4 kmh 29.62 in1003.0 mb - 0.00 in0.0 mm 0.00 in0.0 mm
07:20 AM 78.1°F25.6°C 68.7°F20.4°C 73% 4.6 mph S7.4 kmh S 9.2 mph14.8 kmh 29.62 in1003.0 mb - 0.00 in0.0 mm 0.00 in0.0 mm
07:30 AM 78.7°F25.9°C 68.9°F20.5°C 72% 4.6 mph SSE7.4 kmh SSE 10.4 mph16.7 kmh 29.62 in1003.0 mb - 0.00 in0.0 mm 0.00 in0.0 mm
07:40 AM 79.3°F26.3°C 69.5°F20.8°C 72% 3.5 mph S5.6 kmh S 4.6 mph7.4 kmh 29.62 in1003.0 mb - 0.00 in0.0 mm 0.00 in0.0 mm
07:50 AM 79.8°F26.6°C 69.5°F20.8°C 71% 6.9 mph SSE11.1 kmh SSE 12.7 mph20.4 kmh 29.62 in1003.0 mb - 0.00 in0.0 mm 0.00 in0.0 mm
08:00 AM 80.5°F26.9°C 69.4°F20.8°C 69% 4.6 mph S7.4 kmh S 9.2 mph14.8 kmh 29.61 in1002.7 mb - 0.00 in0.0 mm 0.00 in0.0 mm
08:10 AM 80.8°F27.1°C 69.2°F20.7°C 68% 5.8 mph SSE9.3 kmh SSE 9.2 mph14.8 kmh 29.61 in1002.7 mb - 0.00 in0.0 mm 0.00 in0.0 mm
08:20 AM 80.9°F27.2°C 69.8°F21.0°C 69% 6.9 mph S11.1 kmh S 9.2 mph14.8 kmh 29.61 in1002.7 mb - 0.00 in0.0 mm 0.00 in0.0 mm
08:30 AM 80.6°F27.0°C 69.5°F20.8°C 69% 6.9 mph SSE11.1 kmh SSE 15.0 mph24.1 kmh 29.61 in1002.7 mb - 0.00 in0.0 mm 0.00 in0.0 mm
08:40 AM 81.1°F27.3°C 70.4°F21.3°C 70% 4.6 mph S7.4 kmh S 6.9 mph11.1 kmh 29.62 in1003.0 mb - 0.00 in0.0 mm 0.00 in0.0 mm
08:50 AM 81.2°F27.3°C 70.1°F21.2°C 69% 4.6 mph S7.4 kmh S 6.9 mph11.1 kmh 29.62 in1003.0 mb - 0.00 in0.0 mm 0.00 in0.0 mm
09:00 AM 80.8°F27.1°C 69.7°F20.9°C 69% 4.6 mph SSE7.4 kmh SSE 13.8 mph22.2 kmh 29.62 in1003.0 mb - 0.00 in0.0 mm 0.00 in0.0 mm
09:10 AM 80.7°F27.1°C 69.6°F20.9°C 69% 4.6 mph SSE7.4 kmh SSE 6.9 mph11.1 kmh 29.62 in1003.0 mb - 0.00 in0.0 mm 0.00 in0.0 mm
09:20 AM 80.7°F27.1°C 69.6°F20.9°C 69% 4.6 mph SSE7.4 kmh SSE 5.8 mph9.3 kmh 29.61 in1002.7 mb - 0.00 in0.0 mm 0.00 in0.0 mm
09:30 AM 80.9°F27.2°C 69.8°F21.0°C 69% 6.9 mph SSE11.1 kmh SSE 15.0 mph24.1 kmh 29.61 in1002.7 mb - 0.00 in0.0 mm 0.00 in0.0 mm
09:40 AM 80.6°F27.0°C 69.9°F21.1°C 70% 4.6 mph SSE7.4 kmh SSE 6.9 mph11.1 kmh 29.61 in1002.7 mb - 0.00 in0.0 mm 0.00 in0.0 mm
09:50 AM 80.7°F27.1°C 69.6°F20.9°C 69% 4.6 mph S7.4 kmh S 4.6 mph7.4 kmh 29.60 in1002.4 mb - 0.00 in0.0 mm 0.00 in0.0 mm
10:00 AM 81.0°F27.2°C 69.9°F21.1°C 69% 3.5 mph SSE5.6 kmh SSE 11.5 mph18.5 kmh 29.61 in1002.7 mb - 0.00 in0.0 mm 0.00 in0.0 mm
10:10 AM 81.2°F27.3°C 69.2°F20.7°C 67% 4.6 mph SSE7.4 kmh SSE 10.4 mph16.7 kmh 29.61 in1002.7 mb - 0.00 in0.0 mm 0.00 in0.0 mm
10:20 AM 81.2°F27.3°C 69.7°F20.9°C 68% 4.6 mph S7.4 kmh S 11.5 mph18.5 kmh 29.60 in1002.4 mb - 0.00 in0.0 mm 0.00 in0.0 mm
10:30 AM 82.3°F27.9°C 70.3°F21.3°C 67% 5.8 mph S9.3 kmh S 11.5 mph18.5 kmh 29.60 in1002.4 mb - 0.00 in0.0 mm 0.00 in0.0 mm
10:40 AM 82.7°F28.2°C 69.8°F21.0°C 65% 4.6 mph SSE7.4 kmh SSE 5.8 mph9.3 kmh 29.60 in1002.4 mb - 0.00 in0.0 mm 0.00 in0.0 mm
10:50 AM 84.1°F28.9°C 70.6°F21.4°C 64% 5.8 mph S9.3 kmh S 8.1 mph13.0 kmh 29.60 in1002.4 mb - 0.00 in0.0 mm 0.00 in0.0 mm
11:00 AM 84.3°F29.1°C 69.9°F21.1°C 62% 2.3 mph S3.7 kmh S 4.6 mph7.4 kmh 29.59 in1002.0 mb - 0.00 in0.0 mm 0.00 in0.0 mm
11:10 AM 83.6°F28.7°C 68.7°F20.4°C 61% 8.1 mph S13.0 kmh S 15.0 mph24.1 kmh 29.59 in1002.0 mb - 0.00 in0.0 mm 0.00 in0.0 mm
11:20 AM 83.7°F28.7°C 69.8°F21.0°C 63% 3.5 mph S5.6 kmh S 6.9 mph11.1 kmh 29.59 in1002.0 mb - 0.00 in0.0 mm 0.00 in0.0 mm
11:30 AM 83.9°F28.8°C 69.0°F20.6°C 61% 5.8 mph S9.3 kmh S 8.1 mph13.0 kmh 29.59 in1002.0 mb - 0.00 in0.0 mm 0.00 in0.0 mm
11:40 AM 84.3°F29.1°C 70.4°F21.3°C 63% 3.5 mph S5.6 kmh S 8.1 mph13.0 kmh 29.58 in1001.7 mb - 0.00 in0.0 mm 0.00 in0.0 mm
11:50 AM 85.4°F29.7°C 70.9°F21.6°C 62% 3.5 mph WSW5.6 kmh WSW 9.2 mph14.8 kmh 29.59 in1002.0 mb - 0.00 in0.0 mm 0.00 in0.0 mm
12:00 PM 84.5°F29.2°C 70.1°F21.2°C 62% 4.6 mph SSW7.4 kmh SSW 6.9 mph11.1 kmh 29.58 in1001.7 mb - 0.00 in0.0 mm 0.00 in0.0 mm
12:10 PM 83.9°F28.8°C 70.0°F21.1°C 63% 3.5 mph SSE5.6 kmh SSE 4.6 mph7.4 kmh 29.58 in1001.7 mb - 0.00 in0.0 mm 0.00 in0.0 mm
12:20 PM 85.2°F29.6°C 70.2°F21.2°C 61% 4.6 mph WSW7.4 kmh WSW 9.2 mph14.8 kmh 29.58 in1001.7 mb - 0.00 in0.0 mm 0.00 in0.0 mm
12:30 PM 85.1°F29.5°C 69.7°F20.9°C 60% 3.5 mph SSW5.6 kmh SSW 3.5 mph5.6 kmh 29.59 in1002.0 mb - 0.00 in0.0 mm 0.00 in0.0 mm
12:40 PM 85.5°F29.7°C 70.5°F21.4°C 61% 3.5 mph SSE5.6 kmh SSE 8.1 mph13.0 kmh 29.58 in1001.7 mb - 0.00 in0.0 mm 0.00 in0.0 mm
12:50 PM 85.6°F29.8°C 70.1°F21.2°C 60% 3.5 mph SSW5.6 kmh SSW 15.0 mph24.1 kmh 29.58 in1001.7 mb - 0.00 in0.0 mm 0.00 in0.0 mm
01:00 PM 84.8°F29.3°C 68.9°F20.5°C 59% 2.3 mph S3.7 kmh S 3.5 mph5.6 kmh 29.58 in1001.7 mb - 0.00 in0.0 mm 0.00 in0.0 mm
01:10 PM 84.5°F29.2°C 68.6°F20.3°C 59% 3.5 mph S5.6 kmh S 3.5 mph5.6 kmh 29.58 in1001.7 mb - 0.00 in0.0 mm 0.00 in0.0 mm
01:20 PM 83.9°F28.8°C 67.5°F19.7°C 58% 1.2 mph WSW1.9 kmh WSW 5.8 mph9.3 kmh 29.58 in1001.7 mb - 0.00 in0.0 mm 0.00 in0.0 mm
01:30 PM 83.3°F28.5°C 67.0°F19.4°C 58% 3.5 mph SSW5.6 kmh SSW 5.8 mph9.3 kmh 29.58 in1001.7 mb - 0.00 in0.0 mm 0.00 in0.0 mm
01:40 PM 82.9°F28.3°C 67.1°F19.5°C 59% 2.3 mph SW3.7 kmh SW 4.6 mph7.4 kmh 29.58 in1001.7 mb - 0.00 in0.0 mm 0.00 in0.0 mm
01:50 PM 82.5°F28.1°C 67.2°F19.6°C 60% 4.6 mph SSW7.4 kmh SSW 9.2 mph14.8 kmh 29.58 in1001.7 mb - 0.00 in0.0 mm 0.00 in0.0 mm
02:00 PM 81.2°F27.3°C 68.7°F20.4°C 66% 4.6 mph SW7.4 kmh SW 11.5 mph18.5 kmh 29.58 in1001.7 mb - 0.01 in0.3 mm 0.01 in0.3 mm
02:10 PM 77.2°F25.1°C 68.7°F20.4°C 75% 2.3 mph S3.7 kmh S 3.5 mph5.6 kmh 29.57 in1001.4 mb - 0.02 in0.5 mm 0.03 in0.8 mm
02:20 PM 75.7°F24.3°C 69.5°F20.8°C 81% 3.5 mph W5.6 kmh W 6.9 mph11.1 kmh 29.59 in1002.0 mb - 0.00 in0.0 mm 0.03 in0.8 mm
02:30 PM 74.8°F23.8°C 70.0°F21.1°C 85% 3.5 mph SSE5.6 kmh SSE 4.6 mph7.4 kmh 29.57 in1001.4 mb - 0.01 in0.3 mm 0.04 in1.0 mm
02:40 PM 75.1°F23.9°C 69.9°F21.1°C 84% 1.2 mph WNW1.9 kmh WNW 2.3 mph3.7 kmh 29.56 in1001.0 mb - 0.00 in0.0 mm 0.04 in1.0 mm
02:50 PM 75.9°F24.4°C 71.4°F21.9°C 86% 1.2 mph SSE1.9 kmh SSE 2.3 mph3.7 kmh 29.56 in1001.0 mb - 0.00 in0.0 mm 0.04 in1.0 mm
03:00 PM 75.8°F24.3°C 70.6°F21.4°C 84% 3.5 mph SSE5.6 kmh SSE 8.1 mph13.0 kmh 29.57 in1001.4 mb - 0.00 in0.0 mm 0.04 in1.0 mm
03:10 PM 74.5°F23.6°C 70.7°F21.5°C 88% 4.6 mph SSE7.4 kmh SSE 6.9 mph11.1 kmh 29.58 in1001.7 mb - 0.12 in3.0 mm 0.16 in4.1 mm
03:20 PM 73.4°F23.0°C 70.3°F21.3°C 90% 3.5 mph SE5.6 kmh SE 3.5 mph5.6 kmh 29.57 in1001.4 mb - 0.06 in1.5 mm 0.22 in5.6 mm
03:30 PM 73.3°F22.9°C 70.8°F21.6°C 92% 2.3 mph SSE3.7 kmh SSE 3.5 mph5.6 kmh 29.57 in1001.4 mb - 0.00 in0.0 mm 0.22 in5.6 mm
03:40 PM 73.5°F23.1°C 71.0°F21.7°C 92% Calm Calm 2.3 mph3.7 kmh 29.57 in1001.4 mb - 0.00 in0.0 mm 0.22 in5.6 mm
03:50 PM 73.4°F23.0°C 70.9°F21.6°C 92% 1.2 mph SSW1.9 kmh SSW 3.5 mph5.6 kmh 29.57 in1001.4 mb - 0.01 in0.3 mm 0.23 in5.8 mm
04:00 PM 73.1°F22.8°C 71.0°F21.7°C 93% 1.2 mph WSW1.9 kmh WSW 3.5 mph5.6 kmh 29.58 in1001.7 mb - 0.20 in5.1 mm 0.42 in10.7 mm
04:10 PM 72.5°F22.5°C 70.1°F21.2°C 92% 3.5 mph S5.6 kmh S 3.5 mph5.6 kmh 29.59 in1002.0 mb - 0.02 in0.5 mm 0.44 in11.2 mm
04:20 PM 72.4°F22.4°C 70.3°F21.3°C 93% Calm Calm 1.2 mph1.9 kmh 29.58 in1001.7 mb - 0.01 in0.3 mm 0.45 in11.4 mm
04:30 PM 72.5°F22.5°C 70.7°F21.5°C 94% 2.3 mph S3.7 kmh S 5.8 mph9.3 kmh 29.59 in1002.0 mb - 0.02 in0.5 mm 0.47 in11.9 mm
04:40 PM 72.6°F22.6°C 70.8°F21.6°C 94% 2.3 mph S3.7 kmh S 8.1 mph13.0 kmh 29.58 in1001.7 mb - 0.01 in0.3 mm 0.48 in12.2 mm
04:50 PM 72.2°F22.3°C 69.7°F20.9°C 92% 3.5 mph SSE5.6 kmh SSE 4.6 mph7.4 kmh 29.58 in1001.7 mb - 0.01 in0.3 mm 0.49 in12.4 mm
05:00 PM 71.8°F22.1°C 69.0°F20.6°C 91% 3.5 mph SSE5.6 kmh SSE 4.6 mph7.4 kmh 29.58 in1001.7 mb - 0.01 in0.3 mm 0.50 in12.7 mm
05:10 PM 71.5°F21.9°C 68.7°F20.4°C 91% 2.3 mph S3.7 kmh S 6.9 mph11.1 kmh 29.58 in1001.7 mb - 0.00 in0.0 mm 0.50 in12.7 mm
05:20 PM 71.3°F21.8°C 68.5°F20.3°C 91% 3.5 mph S5.6 kmh S 6.9 mph11.1 kmh 29.58 in1001.7 mb - 0.01 in0.3 mm 0.51 in13.0 mm
05:30 PM 71.2°F21.8°C 68.4°F20.2°C 91% 2.3 mph SE3.7 kmh SE 3.5 mph5.6 kmh 29.58 in1001.7 mb - 0.01 in0.3 mm 0.52 in13.2 mm
05:40 PM 71.2°F21.8°C 68.8°F20.4°C 92% 2.3 mph SSE3.7 kmh SSE 3.5 mph5.6 kmh 29.57 in1001.4 mb - 0.02 in0.5 mm 0.54 in13.7 mm
05:50 PM 71.2°F21.8°C 68.8°F20.4°C 92% 2.3 mph SSE3.7 kmh SSE 2.3 mph3.7 kmh 29.57 in1001.4 mb - 0.00 in0.0 mm 0.54 in13.7 mm
06:00 PM 71.4°F21.9°C 69.3°F20.7°C 93% 3.5 mph SSE5.6 kmh SSE 6.9 mph11.1 kmh 29.57 in1001.4 mb - 0.00 in0.0 mm 0.54 in13.7 mm
06:10 PM 72.1°F22.3°C 70.0°F21.1°C 93% 3.5 mph S5.6 kmh S 5.8 mph9.3 kmh 29.57 in1001.4 mb - 0.00 in0.0 mm 0.54 in13.7 mm
06:20 PM 72.6°F22.6°C 69.8°F21.0°C 91% 3.5 mph SSE5.6 kmh SSE 11.5 mph18.5 kmh 29.57 in1001.4 mb - 0.00 in0.0 mm 0.54 in13.7 mm
06:30 PM 73.1°F22.8°C 70.0°F21.1°C 90% 3.5 mph S5.6 kmh S 9.2 mph14.8 kmh 29.57 in1001.4 mb - 0.00 in0.0 mm 0.54 in13.7 mm
06:40 PM 73.4°F23.0°C 70.0°F21.1°C 89% 4.6 mph SSE7.4 kmh SSE 6.9 mph11.1 kmh 29.57 in1001.4 mb - 0.00 in0.0 mm 0.54 in13.7 mm
06:50 PM 73.5°F23.1°C 70.1°F21.2°C 89% 4.6 mph SSE7.4 kmh SSE 8.1 mph13.0 kmh 29.56 in1001.0 mb - 0.00 in0.0 mm 0.54 in13.7 mm
07:00 PM 73.6°F23.1°C 70.1°F21.2°C 89% 3.5 mph SSE5.6 kmh SSE 8.1 mph13.0 kmh 29.56 in1001.0 mb - 0.00 in0.0 mm 0.54 in13.7 mm
07:10 PM 73.9°F23.3°C 69.8°F21.0°C 87% 3.5 mph S5.6 kmh S 5.8 mph9.3 kmh 29.56 in1001.0 mb - 0.00 in0.0 mm 0.54 in13.7 mm
07:20 PM 73.8°F23.2°C 69.3°F20.7°C 86% 4.6 mph SSE7.4 kmh SSE 8.1 mph13.0 kmh 29.57 in1001.4 mb - 0.00 in0.0 mm 0.54 in13.7 mm
07:30 PM 73.6°F23.1°C 69.2°F20.7°C 86% 2.3 mph SSE3.7 kmh SSE 3.5 mph5.6 kmh 29.58 in1001.7 mb - 0.00 in0.0 mm 0.54 in13.7 mm
07:40 PM 73.4°F23.0°C 69.0°F20.6°C 86% 4.6 mph S7.4 kmh S 9.2 mph14.8 kmh 29.57 in1001.4 mb - 0.00 in0.0 mm 0.54 in13.7 mm
07:50 PM 73.2°F22.9°C 69.1°F20.6°C 87% 4.6 mph SSE7.4 kmh SSE 10.4 mph16.7 kmh 29.58 in1001.7 mb - 0.00 in0.0 mm 0.54 in13.7 mm
08:00 PM 73.0°F22.8°C 68.9°F20.5°C 87% 8.1 mph S13.0 kmh S 11.5 mph18.5 kmh 29.58 in1001.7 mb - 0.00 in0.0 mm 0.54 in13.7 mm
08:10 PM 72.6°F22.6°C 69.1°F20.6°C 89% 3.5 mph S5.6 kmh S 5.8 mph9.3 kmh 29.59 in1002.0 mb - 0.01 in0.3 mm 0.55 in14.0 mm
08:20 PM 72.2°F22.3°C 68.8°F20.4°C 89% 3.5 mph SSE5.6 kmh SSE 12.7 mph20.4 kmh 29.60 in1002.4 mb - 0.00 in0.0 mm 0.55 in14.0 mm
08:30 PM 71.8°F22.1°C 68.7°F20.4°C 90% 6.9 mph S11.1 kmh S 11.5 mph18.5 kmh 29.60 in1002.4 mb - 0.01 in0.3 mm 0.56 in14.2 mm
08:40 PM 71.5°F21.9°C 69.1°F20.6°C 92% 3.5 mph S5.6 kmh S 9.2 mph14.8 kmh 29.60 in1002.4 mb - 0.03 in0.8 mm 0.59 in15.0 mm
08:50 PM 71.2°F21.8°C 69.1°F20.6°C 93% 4.6 mph S7.4 kmh S 9.2 mph14.8 kmh 29.60 in1002.4 mb - 0.05 in1.3 mm 0.64 in16.3 mm
09:00 PM 71.0°F21.7°C 69.2°F20.7°C 94% 3.5 mph S5.6 kmh S 3.5 mph5.6 kmh 29.60 in1002.4 mb - 0.04 in1.0 mm 0.68 in17.3 mm
09:10 PM 70.7°F21.5°C 68.9°F20.5°C 94% 4.6 mph S7.4 kmh S 6.9 mph11.1 kmh 29.60 in1002.4 mb - 0.04 in1.0 mm 0.71 in18.0 mm
09:20 PM 70.6°F21.4°C 68.8°F20.4°C 94% 3.5 mph S5.6 kmh S 8.1 mph13.0 kmh 29.60 in1002.4 mb - 0.02 in0.5 mm 0.73 in18.5 mm
09:30 PM 70.4°F21.3°C 68.9°F20.5°C 95% 4.6 mph SSE7.4 kmh SSE 6.9 mph11.1 kmh 29.61 in1002.7 mb - 0.01 in0.3 mm 0.74 in18.8 mm
09:40 PM 70.2°F21.2°C 68.4°F20.2°C 94% 3.5 mph SSE5.6 kmh SSE 4.6 mph7.4 kmh 29.61 in1002.7 mb - 0.01 in0.3 mm 0.75 in19.1 mm
09:50 PM 70.1°F21.2°C 68.3°F20.2°C 94% 4.6 mph SSE7.4 kmh SSE 6.9 mph11.1 kmh 29.61 in1002.7 mb - 0.00 in0.0 mm 0.75 in19.1 mm
10:00 PM 70.1°F21.2°C 68.3°F20.2°C 94% 3.5 mph S5.6 kmh S 5.8 mph9.3 kmh 29.62 in1003.0 mb - 0.00 in0.0 mm 0.75 in19.1 mm
10:10 PM 69.9°F21.1°C 68.1°F20.1°C 94% 4.6 mph S7.4 kmh S 6.9 mph11.1 kmh 29.62 in1003.0 mb - 0.00 in0.0 mm 0.75 in19.1 mm
10:20 PM 69.8°F21.0°C 67.7°F19.8°C 93% 3.5 mph S5.6 kmh S 6.9 mph11.1 kmh 29.62 in1003.0 mb - 0.00 in0.0 mm 0.75 in19.1 mm
10:30 PM 69.6°F20.9°C 67.5°F19.7°C 93% 2.3 mph SSE3.7 kmh SSE 5.8 mph9.3 kmh 29.62 in1003.0 mb - 0.00 in0.0 mm 0.75 in19.1 mm
10:40 PM 69.5°F20.8°C 67.4°F19.7°C 93% 2.3 mph S3.7 kmh S 3.5 mph5.6 kmh 29.62 in1003.0 mb - 0.00 in0.0 mm 0.75 in19.1 mm
10:50 PM 69.5°F20.8°C 67.4°F19.7°C 93% Calm Calm 3.5 mph5.6 kmh 29.62 in1003.0 mb - 0.00 in0.0 mm 0.75 in19.1 mm
11:00 PM 69.4°F20.8°C 67.3°F19.6°C 93% 2.3 mph SSW3.7 kmh SSW 5.8 mph9.3 kmh 29.63 in1003.4 mb - 0.00 in0.0 mm 0.75 in19.1 mm
11:10 PM 69.5°F20.8°C 67.4°F19.7°C 93% 1.2 mph S1.9 kmh S 3.5 mph5.6 kmh 29.63 in1003.4 mb - 0.00 in0.0 mm 0.75 in19.1 mm
11:20 PM 69.6°F20.9°C 67.2°F19.6°C 92% 1.2 mph SSE1.9 kmh SSE 3.5 mph5.6 kmh 29.63 in1003.4 mb - 0.00 in0.0 mm 0.75 in19.1 mm
11:30 PM 69.7°F20.9°C 67.0°F19.4°C 91% 2.3 mph S3.7 kmh S 4.6 mph7.4 kmh 29.64 in1003.7 mb - 0.00 in0.0 mm 0.75 in19.1 mm
11:40 PM 69.8°F21.0°C 67.1°F19.5°C 91% 3.5 mph S5.6 kmh S 3.5 mph5.6 kmh 29.63 in1003.4 mb - 0.00 in0.0 mm 0.75 in19.1 mm
11:50 PM 69.7°F20.9°C 67.0°F19.4°C 91% 2.3 mph S3.7 kmh S 3.5 mph5.6 kmh 29.63 in1003.4 mb - 0.00 in0.0 mm 0.75 in19.1 mm